Time;durP1;ratioP1;P1;durP2;ratioP2;P2;SDS_P1;SDS_P2;PMS_P1;PMS_P2;Temp;Humidity;BMP_temperature;BMP_pressure;BME280_temperature;BME280_humidity;BME280_pressure;Samples;Min_cycle;Max_cycle;Signal;HPM_P1;HPM_P2
2023/12/01 00:02:04;;;;;;;19.23;14.20;;;1.50;99.90;;;;;;5001646;28;20241;-78
2023/12/01 00:04:31;;;;;;;18.60;12.40;;;1.40;99.90;;;;;;5006405;28;20234;-79
2023/12/01 00:06:59;;;;;;;21.85;13.50;;;1.40;99.90;;;;;;5003315;28;20236;-79
2023/12/01 00:09:26;;;;;;;23.80;14.95;;;1.30;99.90;;;;;;5009026;28;20256;-78
2023/12/01 00:11:53;;;;;;;20.20;13.85;;;1.30;99.90;;;;;;5009666;28;20201;-79
2023/12/01 00:14:22;;;;;;;24.67;13.73;;;1.30;99.90;;;;;;5010362;28;20233;-80
2023/12/01 00:16:49;;;;;;;19.08;13.02;;;1.30;99.90;;;;;;5008139;28;20736;-78
2023/12/01 00:19:16;;;;;;;24.73;14.25;;;1.20;99.90;;;;;;5009240;28;20265;-80
2023/12/01 00:21:43;;;;;;;16.52;12.02;;;1.20;99.90;;;;;;5007665;28;20236;-77
2023/12/01 00:24:11;;;;;;;24.08;14.82;;;1.20;99.90;;;;;;5019874;28;20232;-78
2023/12/01 00:26:38;;;;;;;25.70;13.40;;;1.10;99.90;;;;;;5013373;28;20185;-77
2023/12/01 00:29:04;;;;;;;23.70;13.43;;;1.10;99.90;;;;;;5039398;28;20462;-78
2023/12/01 00:31:31;;;;;;;22.05;14.25;;;1.10;99.90;;;;;;5010804;28;20237;-79
2023/12/01 00:34:00;;;;;;;19.00;14.45;;;1.10;99.90;;;;;;5020785;28;20665;-78
2023/12/01 00:36:27;;;;;;;19.50;13.35;;;1.00;99.90;;;;;;5009042;28;20649;-78
2023/12/01 00:38:54;;;;;;;20.38;13.65;;;0.90;99.90;;;;;;5015931;28;20229;-79
2023/12/01 00:41:22;;;;;;;23.23;13.82;;;0.90;99.90;;;;;;5010289;28;20268;-80
2023/12/01 00:43:50;;;;;;;21.42;15.07;;;0.90;99.90;;;;;;5012731;28;20234;-80
2023/12/01 00:46:17;;;;;;;20.60;13.77;;;0.80;99.90;;;;;;5007696;28;20209;-81
2023/12/01 00:48:44;;;;;;;21.15;15.90;;;0.90;99.90;;;;;;5004733;28;20313;-78
2023/12/01 00:51:15;;;;;;;19.88;12.40;;;0.90;99.90;;;;;;5014795;28;20205;-80
2023/12/01 00:53:43;;;;;;;19.38;11.82;;;1.00;99.90;;;;;;5009546;28;20248;-79
2023/12/01 00:56:11;;;;;;;19.33;13.00;;;0.70;99.90;;;;;;5014243;28;20684;-78
2023/12/01 00:58:39;;;;;;;19.37;12.67;;;0.90;99.90;;;;;;5013784;28;20308;-80
2023/12/01 01:01:07;;;;;;;21.67;15.23;;;0.90;99.90;;;;;;5007612;28;20454;-79
2023/12/01 01:03:35;;;;;;;21.95;16.63;;;0.90;99.90;;;;;;5018196;28;20226;-79
2023/12/01 01:06:02;;;;;;;21.63;13.43;;;0.90;99.90;;;;;;5010562;28;20206;-78
2023/12/01 01:08:30;;;;;;;20.10;14.32;;;1.00;99.90;;;;;;5021739;28;20575;-78
2023/12/01 01:10:57;;;;;;;25.27;15.23;;;0.80;99.90;;;;;;5019989;28;20205;-79
2023/12/01 01:13:26;;;;;;;22.60;14.43;;;0.70;99.90;;;;;;5013888;28;20232;-79
2023/12/01 01:15:54;;;;;;;17.23;12.35;;;0.80;99.90;;;;;;5006854;28;20280;-80
2023/12/01 01:18:22;;;;;;;20.25;14.00;;;0.80;99.90;;;;;;5012062;28;20249;-80
2023/12/01 01:20:51;;;;;;;21.25;15.43;;;0.90;99.90;;;;;;5018425;28;20725;-79
2023/12/01 01:23:18;;;;;;;22.13;15.00;;;0.90;99.90;;;;;;5014883;28;20232;-78
2023/12/01 01:25:45;;;;;;;21.17;14.25;;;0.90;99.90;;;;;;5012256;28;20233;-79
2023/12/01 01:28:12;;;;;;;24.33;14.15;;;0.90;99.90;;;;;;5003661;28;20260;-81
2023/12/01 01:30:38;;;;;;;17.20;14.23;;;0.80;99.90;;;;;;5022857;28;20735;-80
2023/12/01 01:33:07;;;;;;;21.38;15.18;;;0.70;99.90;;;;;;5009867;28;20207;-78
2023/12/01 01:35:34;;;;;;;21.40;13.83;;;0.70;99.90;;;;;;5021591;28;20714;-80
2023/12/01 01:38:01;;;;;;;18.63;13.38;;;0.80;99.90;;;;;;5014290;28;20498;-79
2023/12/01 01:40:28;;;;;;;19.60;12.75;;;0.90;99.90;;;;;;5008168;28;20240;-79
2023/12/01 01:42:54;;;;;;;19.10;13.80;;;0.70;99.90;;;;;;5004565;28;20264;-80
2023/12/01 01:45:22;;;;;;;21.88;14.63;;;0.70;99.90;;;;;;5025805;28;20216;-79
2023/12/01 01:47:49;;;;;;;24.38;14.55;;;0.70;99.90;;;;;;5007878;28;20230;-82
2023/12/01 01:50:22;;;;;;;20.42;14.15;;;0.70;99.90;;;;;;5011534;28;20264;-79
2023/12/01 01:52:51;;;;;;;24.02;13.65;;;0.70;99.90;;;;;;5005656;28;20210;-78
2023/12/01 01:55:18;;;;;;;23.73;16.58;;;0.70;99.90;;;;;;5010815;28;20265;-78
2023/12/01 01:57:45;;;;;;;24.42;17.50;;;0.80;99.90;;;;;;5016625;28;20249;-79
2023/12/01 02:00:16;;;;;;;21.42;14.80;;;0.80;99.90;;;;;;5007676;28;20288;-79
2023/12/01 02:02:44;;;;;;;19.05;14.25;;;0.80;99.90;;;;;;5002405;28;20717;-79
2023/12/01 02:05:14;;;;;;;22.35;13.77;;;0.80;99.90;;;;;;5011613;28;20209;-79
2023/12/01 02:07:42;;;;;;;20.92;13.60;;;0.90;99.90;;;;;;5014617;28;20221;-80
2023/12/01 02:10:15;;;;;;;20.75;13.57;;;0.90;99.90;;;;;;5009510;28;20209;-79
2023/12/01 02:12:44;;;;;;;23.52;15.65;;;0.80;99.90;;;;;;5010715;28;20214;-78
2023/12/01 02:15:11;;;;;;;21.35;15.20;;;0.70;99.90;;;;;;5006059;28;20210;-78
2023/12/01 02:17:38;;;;;;;17.77;13.38;;;0.60;99.90;;;;;;5005632;28;20735;-80
2023/12/01 02:20:06;;;;;;;24.95;15.32;;;0.60;99.90;;;;;;5008717;28;20202;-79
2023/12/01 02:22:35;;;;;;;25.63;14.60;;;0.70;99.90;;;;;;5008718;28;20206;-80
2023/12/01 02:25:01;;;;;;;20.77;14.13;;;0.60;99.90;;;;;;5017060;28;20209;-78
2023/12/01 02:27:28;;;;;;;22.80;14.07;;;0.70;99.90;;;;;;5007900;28;20217;-78
2023/12/01 02:29:55;;;;;;;23.48;14.75;;;0.60;99.90;;;;;;5022466;28;20236;-78
2023/12/01 02:32:22;;;;;;;20.98;14.02;;;0.70;99.90;;;;;;5007536;28;20209;-78
2023/12/01 02:34:49;;;;;;;18.65;11.77;;;0.70;99.90;;;;;;5014482;28;20770;-79
2023/12/01 02:37:16;;;;;;;21.50;14.70;;;0.80;99.90;;;;;;5015440;28;20523;-79
2023/12/01 02:39:44;;;;;;;20.15;14.13;;;0.90;99.90;;;;;;5009058;28;20206;-79
2023/12/01 02:42:11;;;;;;;22.90;16.52;;;0.80;99.90;;;;;;5012724;28;20206;-78
2023/12/01 02:44:38;;;;;;;22.38;14.60;;;0.80;99.90;;;;;;5018880;28;20697;-79
2023/12/01 02:47:05;;;;;;;25.08;15.25;;;1.00;99.90;;;;;;5030461;28;20201;-78
2023/12/01 02:49:31;;;;;;;28.05;16.60;;;0.80;99.90;;;;;;5017008;28;20217;-78
2023/12/01 02:51:58;;;;;;;25.38;15.60;;;0.70;99.90;;;;;;5015999;28;20202;-78
2023/12/01 02:54:25;;;;;;;26.02;18.67;;;0.70;99.90;;;;;;5024409;28;20205;-77
2023/12/01 02:56:54;;;;;;;23.60;16.02;;;0.70;99.90;;;;;;5018000;28;20221;-77
2023/12/01 02:59:20;;;;;;;23.97;16.07;;;0.70;99.90;;;;;;5021920;28;20240;-78
2023/12/01 03:01:47;;;;;;;24.15;16.92;;;0.70;99.90;;;;;;5030809;28;20449;-78
2023/12/01 03:04:15;;;;;;;27.15;17.40;;;0.70;99.90;;;;;;5023077;28;20229;-79
2023/12/01 03:06:42;;;;;;;27.67;16.48;;;0.80;99.90;;;;;;5013418;28;20206;-80
2023/12/01 03:09:16;;;;;;;27.95;19.30;;;0.80;99.90;;;;;;5013517;28;20256;-80
2023/12/01 03:11:44;;;;;;;27.27;19.00;;;0.90;99.90;;;;;;5025308;28;20233;-82
2023/12/01 03:14:12;;;;;;;29.67;19.73;;;0.90;99.90;;;;;;5004718;28;20293;-79
2023/12/01 03:16:40;;;;;;;30.67;19.50;;;0.90;99.90;;;;;;5018016;28;20724;-80
2023/12/01 03:19:08;;;;;;;28.20;20.00;;;0.70;99.90;;;;;;5022448;28;20359;-79
2023/12/01 03:21:36;;;;;;;31.80;20.77;;;0.90;99.90;;;;;;5015365;28;20263;-79
2023/12/01 03:24:03;;;;;;;30.20;19.17;;;0.80;99.90;;;;;;5021188;28;20264;-78
2023/12/01 03:26:30;;;;;;;29.13;20.30;;;0.80;99.90;;;;;;5016239;28;20271;-79
2023/12/01 03:28:57;;;;;;;26.17;18.42;;;0.90;99.90;;;;;;5016452;28;20291;-79
2023/12/01 03:31:26;;;;;;;32.30;22.50;;;0.70;99.90;;;;;;5009480;28;20208;-81
2023/12/01 03:33:52;;;;;;;34.45;22.10;;;0.70;99.90;;;;;;5029528;28;20224;-78
2023/12/01 03:36:19;;;;;;;34.58;25.42;;;0.60;99.90;;;;;;5014591;28;20197;-80
2023/12/01 03:38:46;;;;;;;36.95;24.25;;;0.50;99.90;;;;;;5025442;28;20773;-79
2023/12/01 03:41:13;;;;;;;42.25;26.13;;;0.50;99.90;;;;;;5008579;28;20208;-79
2023/12/01 03:43:40;;;;;;;40.45;25.63;;;0.60;99.90;;;;;;5026540;28;20261;-79
2023/12/01 03:46:07;;;;;;;39.63;26.08;;;0.50;99.90;;;;;;5016624;28;20636;-80
2023/12/01 03:48:36;;;;;;;43.83;25.85;;;0.50;99.90;;;;;;5015616;28;20213;-79
2023/12/01 03:51:03;;;;;;;37.63;24.45;;;0.30;99.90;;;;;;5017664;28;20269;-78
2023/12/01 03:53:30;;;;;;;39.63;24.15;;;0.20;99.90;;;;;;5019127;28;20714;-79
2023/12/01 03:55:58;;;;;;;46.22;27.58;;;0.10;99.90;;;;;;5015135;28;20210;-79
2023/12/01 03:58:25;;;;;;;38.70;25.00;;;-0.10;99.90;;;;;;5018240;28;20230;-77
2023/12/01 04:00:52;;;;;;;33.15;22.42;;;-0.30;99.90;;;;;;5024400;28;20224;-79
2023/12/01 04:03:19;;;;;;;40.55;26.13;;;-0.40;99.90;;;;;;5020370;28;20247;-77
2023/12/01 04:05:47;;;;;;;44.33;26.83;;;-0.50;99.90;;;;;;5028665;28;20197;-78
2023/12/01 04:08:14;;;;;;;38.90;26.52;;;-0.50;99.90;;;;;;5036572;28;20220;-78
2023/12/01 04:10:42;;;;;;;39.78;24.08;;;-0.50;99.90;;;;;;5017648;28;20202;-78
2023/12/01 04:13:11;;;;;;;34.47;22.73;;;-0.50;99.90;;;;;;5030873;28;20656;-79
2023/12/01 04:15:38;;;;;;;39.25;24.25;;;-0.40;99.90;;;;;;5027921;28;20227;-78
2023/12/01 04:18:07;;;;;;;37.42;24.00;;;-0.50;99.90;;;;;;5024229;28;20270;-78
2023/12/01 04:20:38;;;;;;;37.78;23.98;;;-0.40;99.90;;;;;;5021143;28;20200;-78
2023/12/01 04:23:09;;;;;;;36.60;23.23;;;-0.40;99.90;;;;;;5030532;28;20500;-78
2023/12/01 04:25:37;;;;;;;36.75;21.77;;;-0.40;99.90;;;;;;5031149;28;20232;-78
2023/12/01 04:28:06;;;;;;;38.33;23.55;;;-0.40;99.90;;;;;;5018487;28;20304;-79
2023/12/01 04:30:34;;;;;;;36.42;22.92;;;-0.50;99.90;;;;;;5017341;28;20206;-78
2023/12/01 04:33:01;;;;;;;34.60;21.15;;;-0.70;99.90;;;;;;5019700;28;20261;-77
2023/12/01 04:35:30;;;;;;;33.80;20.60;;;-0.80;99.90;;;;;;5013671;28;20280;-78
2023/12/01 04:37:59;;;;;;;34.08;23.17;;;-0.90;99.90;;;;;;5014010;28;20232;-79
2023/12/01 04:40:28;;;;;;;36.72;24.02;;;-0.90;99.90;;;;;;5021051;28;20237;-80
2023/12/01 04:42:55;;;;;;;35.08;23.65;;;-1.00;99.90;;;;;;5013023;28;20262;-78
2023/12/01 04:45:25;;;;;;;31.67;21.10;;;-1.00;99.90;;;;;;5013081;28;20212;-78
2023/12/01 04:47:52;;;;;;;34.67;22.37;;;-1.00;99.90;;;;;;5012428;28;20249;-78
2023/12/01 04:50:21;;;;;;;33.80;21.38;;;-1.00;99.90;;;;;;5016246;28;20472;-78
2023/12/01 04:52:49;;;;;;;35.83;22.20;;;-0.90;99.90;;;;;;5015151;28;20284;-79
2023/12/01 04:55:17;;;;;;;40.15;24.02;;;-0.90;99.90;;;;;;5017171;28;20306;-79
2023/12/01 04:57:47;;;;;;;36.08;22.73;;;-0.90;99.90;;;;;;5008167;28;20236;-78
2023/12/01 05:00:20;;;;;;;37.65;24.45;;;-0.90;99.90;;;;;;5010285;28;20232;-78
2023/12/01 05:02:48;;;;;;;35.22;23.63;;;-0.90;99.90;;;;;;5020229;28;20214;-79
2023/12/01 05:05:16;;;;;;;35.10;24.50;;;-0.90;99.90;;;;;;5021875;28;20233;-78
2023/12/01 05:07:43;;;;;;;38.75;25.05;;;-0.80;99.90;;;;;;5006761;28;20899;-78
2023/12/01 05:10:14;;;;;;;35.08;24.08;;;-0.70;99.90;;;;;;5014724;28;20289;-79
2023/12/01 05:12:43;;;;;;;44.03;25.77;;;-0.80;99.90;;;;;;5020199;28;20299;-79
2023/12/01 05:15:16;;;;;;;36.60;22.73;;;-0.90;99.90;;;;;;5019474;28;20328;-80
2023/12/01 05:17:45;;;;;;;38.53;25.90;;;-0.90;99.90;;;;;;5018763;28;20225;-80
2023/12/01 05:20:16;;;;;;;36.78;22.63;;;-0.90;99.90;;;;;;5015594;28;20229;-78
2023/12/01 05:22:44;;;;;;;32.28;22.08;;;-1.00;99.90;;;;;;5009481;28;20203;-78
2023/12/01 05:25:13;;;;;;;37.05;24.95;;;-1.00;99.90;;;;;;5013436;28;20621;-80
2023/12/01 05:27:43;;;;;;;38.33;23.85;;;-1.10;99.90;;;;;;5011718;28;20227;-79
2023/12/01 05:30:13;;;;;;;39.38;23.83;;;-1.20;99.90;;;;;;5017097;28;20306;-79
2023/12/01 05:32:41;;;;;;;43.58;24.48;;;-1.20;99.90;;;;;;5010032;28;20202;-78
2023/12/01 05:35:11;;;;;;;38.55;24.25;;;-1.20;99.90;;;;;;5026522;28;20209;-80
2023/12/01 05:37:39;;;;;;;35.72;22.35;;;-1.10;99.90;;;;;;5022601;28;20308;-79
2023/12/01 05:40:08;;;;;;;38.35;26.17;;;-1.10;99.90;;;;;;5017740;28;20214;-79
2023/12/01 05:42:35;;;;;;;39.33;24.88;;;-1.10;99.90;;;;;;5010280;28;20213;-77
2023/12/01 05:45:02;;;;;;;38.80;23.90;;;-1.10;99.90;;;;;;5034233;28;20204;-79
2023/12/01 05:47:30;;;;;;;40.72;24.15;;;-1.10;99.90;;;;;;4999832;28;20669;-78
2023/12/01 05:49:57;;;;;;;37.38;24.13;;;-1.10;99.90;;;;;;5025221;28;20200;-79
2023/12/01 05:52:24;;;;;;;39.92;26.05;;;-1.10;99.90;;;;;;5022912;28;20207;-78
2023/12/01 05:54:52;;;;;;;39.10;23.85;;;-1.10;99.90;;;;;;5020601;28;20456;-80
2023/12/01 05:57:20;;;;;;;37.25;23.60;;;-1.10;99.90;;;;;;5027820;28;20287;-80
2023/12/01 05:59:48;;;;;;;44.28;28.33;;;-1.00;99.90;;;;;;5018517;28;20201;-80
2023/12/01 06:02:15;;;;;;;39.03;24.63;;;-1.20;99.90;;;;;;5016363;28;20205;-79
2023/12/01 06:04:44;;;;;;;32.33;22.00;;;-1.20;99.90;;;;;;5018984;28;20621;-78
2023/12/01 06:07:11;;;;;;;38.60;25.48;;;-1.20;99.90;;;;;;5029323;28;20213;-78
2023/12/01 06:09:46;;;;;;;42.38;25.38;;;-1.10;99.90;;;;;;5014531;28;20216;-78
2023/12/01 06:12:14;;;;;;;39.97;22.80;;;-1.10;99.90;;;;;;5023762;28;20220;-77
2023/12/01 06:14:41;;;;;;;42.75;26.40;;;-1.20;99.90;;;;;;5023706;28;20198;-77
2023/12/01 06:17:08;;;;;;;40.67;24.50;;;-1.30;99.90;;;;;;5016710;28;20209;-77
2023/12/01 06:19:35;;;;;;;41.00;25.50;;;-1.20;99.90;;;;;;5026647;28;20201;-77
2023/12/01 06:22:04;;;;;;;40.53;26.58;;;-1.10;99.90;;;;;;5017513;28;20202;-78
2023/12/01 06:24:33;;;;;;;42.20;24.67;;;-1.20;99.90;;;;;;5030647;28;20211;-78
2023/12/01 06:27:04;;;;;;;43.45;27.98;;;-1.20;99.90;;;;;;5021378;28;20659;-78
2023/12/01 06:29:30;;;;;;;36.10;23.08;;;-1.20;99.90;;;;;;5007901;28;20316;-78
2023/12/01 06:31:57;;;;;;;43.10;26.45;;;-0.90;99.90;;;;;;5020832;28;20584;-78
2023/12/01 06:34:30;;;;;;;37.83;22.75;;;-1.10;99.90;;;;;;5024843;28;20208;-79
2023/12/01 06:36:58;;;;;;;37.75;25.17;;;-0.90;99.90;;;;;;5011383;28;20214;-79
2023/12/01 06:39:27;;;;;;;44.90;26.77;;;-0.90;99.90;;;;;;5016391;28;20819;-78
2023/12/01 06:41:55;;;;;;;49.53;33.40;;;-0.90;99.90;;;;;;5014001;28;20452;-79
2023/12/01 06:44:22;;;;;;;45.33;29.13;;;-0.90;99.90;;;;;;5019347;28;20456;-78
2023/12/01 06:46:50;;;;;;;47.40;28.05;;;-0.90;99.90;;;;;;5015418;28;20670;-78
2023/12/01 06:49:19;;;;;;;42.85;27.73;;;-0.90;99.90;;;;;;5021143;28;20225;-77
2023/12/01 06:51:46;;;;;;;48.28;26.75;;;-0.90;99.90;;;;;;5034642;28;20216;-78
2023/12/01 06:54:13;;;;;;;56.83;30.73;;;-0.90;99.90;;;;;;5034909;28;20259;-79
2023/12/01 06:56:43;;;;;;;38.75;25.63;;;-0.90;99.90;;;;;;5022028;28;20220;-77
2023/12/01 06:59:12;;;;;;;52.25;28.10;;;-0.90;99.90;;;;;;5021218;28;20253;-82
2023/12/01 07:01:44;;;;;;;47.30;26.65;;;-0.80;99.90;;;;;;5032681;28;20246;-82
2023/12/01 07:04:13;;;;;;;53.58;29.02;;;-0.90;99.90;;;;;;5034711;28;20268;-83
2023/12/01 07:06:51;;;;;;;50.72;30.50;;;-0.90;99.90;;;;;;5048848;28;20202;-83
2023/12/01 07:09:20;;;;;;;46.00;28.60;;;-1.00;99.90;;;;;;5020401;28;20232;-82
2023/12/01 07:11:56;;;;;;;50.15;28.60;;;-1.10;99.90;;;;;;5014348;28;20894;-84
2023/12/01 07:14:40;;;;;;;47.03;28.42;;;-1.20;99.90;;;;;;5023233;28;20200;-83
2023/12/01 07:17:17;;;;;;;53.42;30.02;;;-1.10;99.90;;;;;;5030288;28;20217;-84
2023/12/01 07:19:50;;;;;;;51.88;30.52;;;-1.30;99.90;;;;;;5025054;28;20221;-81
2023/12/01 07:22:51;;;;;;;53.03;29.45;;;-1.30;99.90;;;;;;5030598;28;20205;-84
2023/12/01 07:25:28;;;;;;;49.72;28.25;;;-1.30;99.90;;;;;;5028989;28;20215;-83
2023/12/01 07:28:01;;;;;;;47.70;27.25;;;-1.10;99.90;;;;;;5027921;28;20213;-82
2023/12/01 07:30:40;;;;;;;50.35;30.08;;;-1.00;99.90;;;;;;5046895;28;20216;-85
2023/12/01 07:33:33;;;;;;;52.42;29.92;;;-0.80;99.90;;;;;;5029835;28;20213;-83
2023/12/01 07:36:02;;;;;;;51.88;28.85;;;-0.80;99.90;;;;;;5029039;28;20205;-83
2023/12/01 07:38:29;;;;;;;51.13;27.77;;;-0.80;99.90;;;;;;5041053;28;20289;-82
2023/12/01 07:41:12;;;;;;;48.53;28.65;;;-0.80;99.90;;;;;;5024760;28;20373;-87
2023/12/01 07:44:06;;;;;;;43.95;29.25;;;-0.80;99.90;;;;;;5028388;28;20224;-83
2023/12/01 07:46:57;;;;;;;44.60;24.65;;;-0.70;99.90;;;;;;4963533;28;20207;-84
2023/12/01 07:49:37;;;;;;;43.00;27.33;;;-0.60;99.90;;;;;;5038252;23;20231;-74
2023/12/01 07:52:06;;;;;;;41.08;25.33;;;-0.60;99.90;;;;;;5030172;28;20587;-73
2023/12/01 07:54:33;;;;;;;43.45;26.65;;;-0.50;99.90;;;;;;5028610;28;20217;-71
2023/12/01 07:57:00;;;;;;;40.63;26.27;;;-0.40;99.90;;;;;;5007641;28;20552;-71
2023/12/01 07:59:36;;;;;;;42.65;27.23;;;-0.20;99.90;;;;;;5007830;28;20275;-69
2023/12/01 08:02:05;;;;;;;38.45;25.92;;;-0.10;99.90;;;;;;5003253;28;20201;-69
2023/12/01 08:04:32;;;;;;;41.10;27.33;;;-0.20;99.90;;;;;;5002630;28;20248;-70
2023/12/01 08:06:59;;;;;;;40.17;26.80;;;-0.30;99.90;;;;;;5004916;28;20209;-70
2023/12/01 08:09:31;;;;;;;47.60;29.70;;;-0.50;99.90;;;;;;5002099;28;20686;-73
2023/12/01 08:11:58;;;;;;;41.40;26.13;;;-0.50;99.90;;;;;;5013827;28;20201;-72
2023/12/01 08:14:26;;;;;;;43.20;24.65;;;-0.60;99.90;;;;;;5010880;28;20216;-72
2023/12/01 08:16:54;;;;;;;45.35;27.77;;;-0.60;99.90;;;;;;5007014;28;20236;-73
2023/12/01 08:19:22;;;;;;;44.88;28.60;;;-0.50;99.90;;;;;;5006227;28;20280;-70
2023/12/01 08:21:50;;;;;;;50.97;30.17;;;-0.40;99.90;;;;;;5004851;28;20259;-70
2023/12/01 08:24:18;;;;;;;61.65;29.90;;;-0.30;99.90;;;;;;5006246;28;20232;-71
2023/12/01 08:26:46;;;;;;;45.53;25.92;;;-0.10;99.90;;;;;;5005949;28;20226;-70
2023/12/01 08:29:15;;;;;;;51.77;29.10;;;0.10;99.90;;;;;;5019649;28;20201;-73
2023/12/01 08:31:45;;;;;;;38.55;26.48;;;0.30;99.90;;;;;;5017467;28;20440;-73
2023/12/01 08:34:13;;;;;;;43.47;27.67;;;0.50;99.90;;;;;;5019723;28;20270;-71
2023/12/01 08:36:40;;;;;;;40.50;26.50;;;0.50;99.90;;;;;;5008962;28;20216;-74
2023/12/01 08:39:09;;;;;;;42.83;26.75;;;0.60;99.90;;;;;;5011521;28;20350;-71
2023/12/01 08:41:37;;;;;;;39.17;25.42;;;0.60;99.90;;;;;;5005021;28;20224;-70
2023/12/01 08:44:05;;;;;;;47.20;25.98;;;0.80;99.90;;;;;;5003797;28;20674;-71
2023/12/01 08:46:33;;;;;;;47.35;29.83;;;1.00;99.90;;;;;;5008110;28;20774;-72
2023/12/01 08:49:00;;;;;;;37.70;23.77;;;1.30;99.90;;;;;;5009602;28;20224;-70
2023/12/01 08:51:28;;;;;;;54.67;29.45;;;1.50;99.90;;;;;;5006125;28;20267;-69
2023/12/01 08:53:55;;;;;;;46.17;26.58;;;1.60;99.90;;;;;;5019528;28;20225;-68
2023/12/01 08:56:23;;;;;;;45.17;25.90;;;1.80;99.90;;;;;;5010669;28;20256;-70
2023/12/01 08:58:50;;;;;;;38.33;25.25;;;2.10;99.90;;;;;;5020175;28;20550;-68
2023/12/01 09:01:17;;;;;;;41.55;24.27;;;2.30;99.90;;;;;;5007514;28;20223;-71
2023/12/01 09:03:44;;;;;;;44.10;26.23;;;2.60;99.90;;;;;;5004129;28;20312;-74
2023/12/01 09:06:11;;;;;;;35.75;22.38;;;2.60;99.90;;;;;;5014391;28;20202;-70
2023/12/01 09:08:40;;;;;;;38.88;24.40;;;2.50;99.90;;;;;;5008481;28;20199;-70
2023/12/01 09:11:07;;;;;;;41.45;25.52;;;2.50;99.90;;;;;;5010439;28;20240;-70
2023/12/01 09:13:34;;;;;;;41.75;26.50;;;2.60;99.90;;;;;;5000338;28;20257;-69
2023/12/01 09:16:02;;;;;;;40.72;26.30;;;2.40;99.90;;;;;;5011289;28;20694;-68
2023/12/01 09:18:30;;;;;;;45.03;27.73;;;2.40;99.90;;;;;;5006806;28;20214;-67
2023/12/01 09:20:57;;;;;;;44.95;27.58;;;2.20;99.90;;;;;;5011385;28;20201;-68
2023/12/01 09:23:24;;;;;;;59.50;30.73;;;2.10;99.90;;;;;;5007048;28;20253;-71
2023/12/01 09:25:53;;;;;;;52.92;28.08;;;2.00;99.90;;;;;;5011658;28;20225;-70
2023/12/01 09:28:19;;;;;;;44.80;25.85;;;1.90;99.90;;;;;;5006237;28;20213;-67
2023/12/01 09:30:48;;;;;;;48.05;29.33;;;1.90;99.90;;;;;;5008572;28;20248;-69
2023/12/01 09:33:16;;;;;;;45.90;27.02;;;1.90;99.90;;;;;;5002671;28;20210;-69
2023/12/01 09:35:43;;;;;;;42.90;26.27;;;1.70;99.90;;;;;;5015602;28;20627;-71
2023/12/01 09:38:09;;;;;;;43.20;27.00;;;1.70;99.90;;;;;;5011164;28;20205;-70
2023/12/01 09:40:41;;;;;;;45.42;24.23;;;1.70;99.90;;;;;;5005442;28;20214;-69
2023/12/01 09:43:12;;;;;;;43.03;25.98;;;1.70;99.90;;;;;;5002616;28;20198;-71
2023/12/01 09:45:39;;;;;;;49.40;27.15;;;1.70;99.90;;;;;;5007343;28;20226;-70
2023/12/01 09:48:09;;;;;;;43.75;28.58;;;1.60;99.90;;;;;;5020205;28;20722;-68
2023/12/01 09:50:37;;;;;;;41.67;23.65;;;1.50;99.90;;;;;;5005395;28;20287;-68
2023/12/01 09:53:03;;;;;;;43.78;23.92;;;1.50;99.90;;;;;;5014589;28;20205;-66
2023/12/01 09:55:31;;;;;;;51.67;26.02;;;1.60;99.90;;;;;;5018607;28;20260;-69
2023/12/01 09:57:58;;;;;;;44.00;26.17;;;1.60;99.90;;;;;;5003553;28;20209;-70
2023/12/01 10:00:27;;;;;;;47.42;27.92;;;1.50;99.90;;;;;;5007473;28;20268;-69
2023/12/01 10:02:54;;;;;;;48.70;26.30;;;1.50;99.90;;;;;;5000480;28;20636;-66
2023/12/01 10:05:21;;;;;;;45.63;26.90;;;1.40;99.90;;;;;;5007237;28;20649;-71
2023/12/01 10:07:50;;;;;;;44.17;26.02;;;1.40;99.90;;;;;;5005375;28;20206;-71
2023/12/01 10:10:22;;;;;;;55.05;30.33;;;1.50;99.90;;;;;;5009811;28;20202;-71
2023/12/01 10:13:03;;;;;;;73.07;30.10;;;1.50;99.90;;;;;;5009888;28;20651;-72
2023/12/01 10:15:33;;;;;;;54.60;26.63;;;1.60;99.90;;;;;;5005388;28;20232;-68
2023/12/01 10:18:10;;;;;;;44.00;25.30;;;1.60;99.90;;;;;;5006009;28;20202;-66
2023/12/01 10:20:39;;;;;;;70.03;29.20;;;1.60;99.90;;;;;;4999455;28;20222;-70
2023/12/01 10:23:17;;;;;;;40.67;25.52;;;1.60;99.90;;;;;;5034808;23;20232;-66
2023/12/01 10:25:47;;;;;;;96.00;32.53;;;1.60;99.90;;;;;;5042491;28;20206;-66
2023/12/01 10:28:14;;;;;;;34.50;18.95;;;1.60;99.90;;;;;;5044613;28;20439;-67
2023/12/01 10:30:53;;;;;;;29.98;17.90;;;1.40;99.90;;;;;;5045947;28;20369;-68
2023/12/01 10:33:20;;;;;;;33.22;18.02;;;1.40;99.90;;;;;;5045854;28;20200;-67
2023/12/01 10:36:01;;;;;;;39.28;20.10;;;1.50;99.90;;;;;;5050075;28;20294;-65
2023/12/01 10:38:28;;;;;;;34.85;22.55;;;1.60;99.90;;;;;;5047389;28;20230;-65
2023/12/01 10:40:55;;;;;;;34.85;21.92;;;1.80;99.90;;;;;;5044613;28;20294;-67
2023/12/01 10:43:23;;;;;;;34.95;22.23;;;1.80;99.90;;;;;;5045387;28;20200;-68
2023/12/01 10:45:51;;;;;;;46.20;25.33;;;1.70;99.90;;;;;;5052037;28;20295;-67
2023/12/01 10:48:19;;;;;;;43.95;26.38;;;1.80;99.90;;;;;;5043925;28;20312;-67
2023/12/01 10:50:47;;;;;;;41.70;24.35;;;1.80;99.90;;;;;;5052285;28;20359;-67
2023/12/01 10:53:15;;;;;;;51.38;24.40;;;1.80;99.90;;;;;;5044656;28;20228;-66
2023/12/01 10:55:46;;;;;;;34.55;22.98;;;1.90;99.90;;;;;;5046959;28;20287;-67
2023/12/01 10:58:20;;;;;;;41.53;22.17;;;1.90;99.90;;;;;;5047999;28;20306;-67
2023/12/01 11:00:48;;;;;;;32.53;20.50;;;1.90;99.90;;;;;;5043912;28;20216;-68
2023/12/01 11:03:19;;;;;;;38.00;22.80;;;1.90;99.90;;;;;;5051530;28;20243;-67
2023/12/01 11:05:48;;;;;;;33.92;22.08;;;1.80;99.90;;;;;;5050606;28;20282;-67
2023/12/01 11:08:30;;;;;;;40.20;22.63;;;2.00;99.90;;;;;;5042812;28;20259;-68
2023/12/01 11:11:11;;;;;;;45.38;21.98;;;1.90;99.90;;;;;;5039678;28;20204;-68
2023/12/01 11:13:51;;;;;;;50.33;23.88;;;1.90;99.90;;;;;;5042115;28;20246;-67
2023/12/01 11:16:18;;;;;;;43.90;20.08;;;1.90;99.90;;;;;;5049631;28;20235;-69
2023/12/01 11:18:46;;;;;;;66.40;23.20;;;2.00;99.90;;;;;;5042750;28;20258;-69
2023/12/01 11:21:17;;;;;;;33.10;20.25;;;2.00;99.90;;;;;;5041573;28;20212;-67
2023/12/01 11:23:44;;;;;;;43.60;18.60;;;2.00;99.90;;;;;;5042716;28;20358;-66
2023/12/01 11:26:12;;;;;;;38.45;19.10;;;2.10;99.90;;;;;;5050472;28;20262;-67
2023/12/01 11:28:56;;;;;;;31.23;18.30;;;2.20;99.90;;;;;;5039575;28;20232;-67
2023/12/01 11:31:34;;;;;;;36.67;20.02;;;2.30;99.90;;;;;;5040573;28;20200;-68
2023/12/01 11:34:04;;;;;;;32.45;19.08;;;2.20;99.90;;;;;;5045380;28;20215;-69
2023/12/01 11:36:32;;;;;;;36.97;19.98;;;2.20;99.90;;;;;;5045240;28;20216;-67
2023/12/01 11:39:26;;;;;;;44.85;24.52;;;2.10;99.90;;;;;;5039733;28;20309;-68
2023/12/01 11:42:12;;;;;;;47.70;27.23;;;2.30;99.90;;;;;;5042788;28;20706;-68
2023/12/01 11:44:40;;;;;;;45.10;23.08;;;2.20;99.90;;;;;;5038553;28;20202;-67
2023/12/01 11:47:09;;;;;;;44.95;24.33;;;2.20;99.90;;;;;;5046908;28;20635;-66
2023/12/01 11:49:38;;;;;;;43.05;25.92;;;2.30;99.90;;;;;;5046383;28;20206;-67
2023/12/01 11:52:06;;;;;;;44.38;24.27;;;2.30;99.90;;;;;;5041356;28;20214;-67
2023/12/01 11:54:35;;;;;;;46.28;26.60;;;2.30;99.90;;;;;;5044420;28;20699;-67
2023/12/01 11:57:03;;;;;;;47.78;26.08;;;2.40;99.90;;;;;;5042035;28;20204;-68
2023/12/01 11:59:30;;;;;;;45.15;24.35;;;2.50;99.90;;;;;;5045217;28;20223;-67
2023/12/01 12:01:57;;;;;;;44.80;24.95;;;2.40;99.90;;;;;;5049855;28;20295;-69
2023/12/01 12:04:24;;;;;;;38.45;23.98;;;2.40;99.90;;;;;;5044988;28;20234;-68
2023/12/01 12:06:52;;;;;;;36.75;22.15;;;2.40;99.90;;;;;;5044194;28;20208;-68
2023/12/01 12:09:19;;;;;;;33.60;22.38;;;2.50;99.90;;;;;;5048091;28;20302;-66
2023/12/01 12:11:48;;;;;;;36.92;21.50;;;2.40;99.90;;;;;;5040592;28;20901;-70
2023/12/01 12:14:16;;;;;;;40.38;23.98;;;2.40;99.90;;;;;;5041854;28;20207;-68
2023/12/01 12:16:44;;;;;;;51.22;25.30;;;2.20;99.90;;;;;;5042335;28;20202;-68
2023/12/01 12:19:10;;;;;;;49.60;23.33;;;2.20;99.90;;;;;;5047965;28;20219;-68
2023/12/01 12:21:37;;;;;;;40.15;21.05;;;2.10;99.90;;;;;;5045542;28;20605;-68
2023/12/01 12:24:07;;;;;;;39.50;22.10;;;2.10;99.90;;;;;;5039195;28;20254;-69
2023/12/01 12:26:34;;;;;;;39.95;23.27;;;2.20;99.90;;;;;;5052152;28;20219;-66
2023/12/01 12:29:02;;;;;;;38.60;21.02;;;2.00;99.90;;;;;;5043878;28;20227;-70
2023/12/01 12:31:31;;;;;;;38.42;22.10;;;2.00;99.90;;;;;;5044544;28;20250;-68
2023/12/01 12:34:00;;;;;;;37.88;21.65;;;2.10;99.90;;;;;;5047518;28;20263;-68
2023/12/01 12:36:28;;;;;;;40.88;22.45;;;2.10;99.90;;;;;;5046807;28;20711;-67
2023/12/01 12:38:59;;;;;;;40.80;23.73;;;2.00;99.90;;;;;;5046162;28;20319;-68
2023/12/01 12:41:29;;;;;;;46.53;26.70;;;2.00;99.90;;;;;;5048522;28;20220;-67
2023/12/01 12:43:58;;;;;;;48.17;27.63;;;1.80;99.90;;;;;;5046807;28;20204;-68